Time;durP1;ratioP1;P1;durP2;ratioP2;P2;SDS_P1;SDS_P2;PMS_P1;PMS_P2;Temp;Humidity;BMP_temperature;BMP_pressure;BME280_temperature;BME280_humidity;BME280_pressure;Samples;Min_cycle;Max_cycle;Signal;HPM_P1;HPM_P2
2023/10/24 00:00:18;;;;;;;26.25;13.68;;;;;;;;;;2069221;28;20033;-78
2023/10/24 00:01:39;;;;;;;23.65;13.50;;;;;;;;;;2064695;28;20387;-78
2023/10/24 00:03:00;;;;;;;20.40;13.23;;;;;;;;;;2068523;28;20036;-78
2023/10/24 00:04:21;;;;;;;24.08;14.35;;;;;;;;;;2070284;28;20429;-77
2023/10/24 00:05:42;;;;;;;23.95;13.73;;;;;;;;;;2063278;28;20030;-77
2023/10/24 00:07:03;;;;;;;23.67;13.32;;;;;;;;;;2060002;28;20023;-77
2023/10/24 00:08:24;;;;;;;23.23;14.95;;;;;;;;;;2067843;28;20033;-77
2023/10/24 00:09:45;;;;;;;20.35;12.40;;;;;;;;;;2071087;28;20048;-77
2023/10/24 00:11:06;;;;;;;22.25;13.70;;;;;;;;;;2061301;28;20367;-78
2023/10/24 00:12:27;;;;;;;28.85;14.48;;;;;;;;;;2060307;28;20022;-78
2023/10/24 00:13:48;;;;;;;23.80;14.05;;;;;;;;;;2070181;28;20030;-78
2023/10/24 00:15:09;;;;;;;22.92;13.52;;;;;;;;;;2070811;28;20022;-77
2023/10/24 00:16:29;;;;;;;23.88;13.65;;;;;;;;;;2065299;28;20041;-77
2023/10/24 00:17:50;;;;;;;21.60;12.85;;;;;;;;;;2072863;28;20509;-77
2023/10/24 00:19:11;;;;;;;20.42;13.30;;;;;;;;;;2070363;28;20050;-78
2023/10/24 00:20:32;;;;;;;23.63;12.95;;;;;;;;;;2063325;28;20038;-78
2023/10/24 00:21:53;;;;;;;27.92;13.43;;;;;;;;;;2065108;28;20038;-77
2023/10/24 00:23:14;;;;;;;21.02;13.40;;;;;;;;;;2076989;28;20056;-77
2023/10/24 00:24:35;;;;;;;24.45;14.55;;;;;;;;;;2063050;28;20023;-78
2023/10/24 00:25:56;;;;;;;23.70;12.23;;;;;;;;;;2065718;28;20030;-78
2023/10/24 00:27:17;;;;;;;17.65;12.02;;;;;;;;;;2060378;28;20404;-77
2023/10/24 00:28:38;;;;;;;19.52;12.50;;;;;;;;;;2064109;28;20026;-78
2023/10/24 00:29:59;;;;;;;21.85;13.40;;;;;;;;;;2062615;28;20343;-78
2023/10/24 00:31:20;;;;;;;20.95;11.70;;;;;;;;;;2069696;28;20397;-77
2023/10/24 00:32:40;;;;;;;17.20;12.82;;;;;;;;;;2070741;28;20027;-77
2023/10/24 00:34:01;;;;;;;25.50;13.02;;;;;;;;;;2076313;28;20025;-77
2023/10/24 00:35:22;;;;;;;23.13;13.18;;;;;;;;;;2061213;28;20473;-78
2023/10/24 00:36:43;;;;;;;20.92;12.65;;;;;;;;;;2067389;28;20017;-77
2023/10/24 00:38:04;;;;;;;25.05;14.18;;;;;;;;;;2064398;28;20042;-77
2023/10/24 00:39:25;;;;;;;17.60;12.48;;;;;;;;;;2068680;28;20034;-78
2023/10/24 00:40:46;;;;;;;17.83;12.77;;;;;;;;;;2071529;28;20029;-78
2023/10/24 00:42:07;;;;;;;17.73;11.55;;;;;;;;;;2069090;28;20157;-78
2023/10/24 00:43:28;;;;;;;20.13;12.55;;;;;;;;;;2062602;28;20124;-78
2023/10/24 00:44:48;;;;;;;19.13;11.90;;;;;;;;;;2059818;28;20030;-77
2023/10/24 00:46:10;;;;;;;18.38;11.60;;;;;;;;;;2063991;28;20030;-78
2023/10/24 00:47:31;;;;;;;25.75;11.63;;;;;;;;;;2069814;28;20042;-78
2023/10/24 00:48:52;;;;;;;22.48;12.73;;;;;;;;;;2072895;28;20389;-77
2023/10/24 00:50:13;;;;;;;23.35;12.43;;;;;;;;;;2059743;28;20046;-78
2023/10/24 00:51:34;;;;;;;23.08;13.32;;;;;;;;;;2071560;28;20049;-77
2023/10/24 00:52:56;;;;;;;20.95;12.50;;;;;;;;;;2056469;28;20046;-78
2023/10/24 00:54:17;;;;;;;20.10;11.43;;;;;;;;;;2059861;28;20027;-77
2023/10/24 00:55:39;;;;;;;18.83;12.43;;;;;;;;;;2062942;28;20042;-77
2023/10/24 00:57:00;;;;;;;22.08;11.85;;;;;;;;;;2068424;28;20042;-78
2023/10/24 00:58:21;;;;;;;17.27;11.38;;;;;;;;;;2071876;28;20346;-77
2023/10/24 00:59:43;;;;;;;19.08;11.70;;;;;;;;;;2055778;28;20047;-78
2023/10/24 01:01:09;;;;;;;22.15;14.55;;;;;;;;;;2055631;28;20483;-78
2023/10/24 01:02:30;;;;;;;19.80;11.85;;;;;;;;;;2067019;28;20093;-78
2023/10/24 01:03:52;;;;;;;20.10;11.63;;;;;;;;;;2062791;28;20085;-77
2023/10/24 01:05:13;;;;;;;;;;;;;;;;;;2060276;28;20038;-78
2023/10/24 01:06:34;;;;;;;19.52;11.23;;;;;;;;;;2059614;28;19914;-78
2023/10/24 01:07:55;;;;;;;18.75;11.32;;;;;;;;;;2065594;28;20395;-77
2023/10/24 01:09:16;;;;;;;19.45;11.60;;;;;;;;;;2067353;28;20026;-77
2023/10/24 01:10:37;;;;;;;15.80;10.00;;;;;;;;;;2070884;28;20461;-77
2023/10/24 01:11:58;;;;;;;15.07;11.48;;;;;;;;;;2061306;28;20092;-77
2023/10/24 01:13:19;;;;;;;17.45;10.52;;;;;;;;;;2061151;28;20481;-78
2023/10/24 01:14:40;;;;;;;17.25;10.55;;;;;;;;;;2067842;28;20038;-77
2023/10/24 01:16:01;;;;;;;13.85;10.85;;;;;;;;;;2061183;28;20057;-78
2023/10/24 01:17:22;;;;;;;16.00;10.23;;;;;;;;;;2064736;28;20030;-77
2023/10/24 01:18:43;;;;;;;16.65;10.10;;;;;;;;;;2053875;28;20145;-78
2023/10/24 01:20:04;;;;;;;17.60;9.80;;;;;;;;;;2056583;28;20062;-78
2023/10/24 01:21:25;;;;;;;15.23;10.65;;;;;;;;;;2066059;28;20034;-78
2023/10/24 01:22:46;;;;;;;13.27;8.93;;;;;;;;;;2064510;28;20026;-78
2023/10/24 01:24:07;;;;;;;13.07;9.48;;;;;;;;;;2064160;28;20052;-78
2023/10/24 01:25:28;;;;;;;14.85;9.75;;;;;;;;;;2063789;28;20027;-78
2023/10/24 01:26:50;;;;;;;10.85;8.40;;;;;;;;;;2073601;28;20033;-78
2023/10/24 01:28:11;;;;;;;11.27;8.32;;;;;;;;;;2069088;28;20038;-77
2023/10/24 01:29:31;;;;;;;9.68;8.10;;;;;;;;;;2072635;28;20485;-77
2023/10/24 01:30:52;;;;;;;9.77;7.68;;;;;;;;;;2072127;28;20030;-77
2023/10/24 01:32:13;;;;;;;11.57;8.15;;;;;;;;;;2064119;28;20076;-78
2023/10/24 01:33:34;;;;;;;12.40;7.95;;;;;;;;;;2072832;28;20148;-78
2023/10/24 01:34:55;;;;;;;10.95;7.68;;;;;;;;;;2071023;28;20030;-77
2023/10/24 01:36:16;;;;;;;11.52;7.72;;;;;;;;;;2058600;28;20094;-78
2023/10/24 01:37:37;;;;;;;8.43;6.70;;;;;;;;;;2061856;28;20033;-78
2023/10/24 01:38:58;;;;;;;11.10;7.72;;;;;;;;;;2067479;28;20398;-77
2023/10/24 01:40:19;;;;;;;14.95;9.30;;;;;;;;;;2064038;28;20038;-79
2023/10/24 01:41:39;;;;;;;12.48;6.72;;;;;;;;;;2053444;28;20035;-78
2023/10/24 01:43:00;;;;;;;9.02;7.22;;;;;;;;;;2058448;28;20030;-77
2023/10/24 01:44:21;;;;;;;11.27;7.22;;;;;;;;;;2069562;28;20096;-78
2023/10/24 01:45:42;;;;;;;10.57;7.68;;;;;;;;;;2073718;28;20026;-78
2023/10/24 01:47:03;;;;;;;10.27;7.30;;;;;;;;;;2063641;28;20038;-78
2023/10/24 01:48:25;;;;;;;8.55;7.22;;;;;;;;;;2060693;28;20062;-77
2023/10/24 01:49:46;;;;;;;11.80;7.50;;;;;;;;;;2068391;28;20038;-78
2023/10/24 01:51:07;;;;;;;12.55;8.45;;;;;;;;;;2074916;28;20036;-77
2023/10/24 01:52:28;;;;;;;10.65;7.25;;;;;;;;;;2076983;28;20416;-78
2023/10/24 01:53:49;;;;;;;9.85;7.28;;;;;;;;;;2066721;28;20480;-77
2023/10/24 01:55:09;;;;;;;12.05;8.35;;;;;;;;;;2072443;28;20076;-78
2023/10/24 01:56:30;;;;;;;8.55;6.68;;;;;;;;;;2064227;28;20062;-78
2023/10/24 01:57:51;;;;;;;9.57;7.60;;;;;;;;;;2071304;28;20030;-77
2023/10/24 01:59:12;;;;;;;12.90;7.00;;;;;;;;;;2070890;28;20054;-77
2023/10/24 02:00:33;;;;;;;13.05;7.25;;;;;;;;;;2064749;28;20039;-76
2023/10/24 02:01:54;;;;;;;10.63;7.75;;;;;;;;;;2062966;28;20482;-77
2023/10/24 02:03:15;;;;;;;11.52;8.73;;;;;;;;;;2073097;28;20104;-78
2023/10/24 02:04:36;;;;;;;8.68;7.55;;;;;;;;;;2076129;28;20116;-77
2023/10/24 02:05:56;;;;;;;13.02;7.88;;;;;;;;;;2073747;28;20026;-78
2023/10/24 02:07:19;;;;;;;11.27;7.20;;;;;;;;;;2077786;28;20048;-77
2023/10/24 02:08:40;;;;;;;12.10;7.60;;;;;;;;;;2073390;28;20033;-78
2023/10/24 02:10:03;;;;;;;9.93;7.72;;;;;;;;;;2056181;28;20070;-78
2023/10/24 02:11:24;;;;;;;11.30;8.00;;;;;;;;;;2058669;28;20038;-77
2023/10/24 02:12:45;;;;;;;11.68;8.70;;;;;;;;;;2070675;28;20038;-77
2023/10/24 02:14:06;;;;;;;12.35;7.72;;;;;;;;;;2072314;28;20022;-77
2023/10/24 02:15:27;;;;;;;9.68;7.70;;;;;;;;;;2064885;28;20026;-77
2023/10/24 02:16:48;;;;;;;12.40;8.23;;;;;;;;;;2066649;28;20482;-77
2023/10/24 02:18:09;;;;;;;8.85;7.38;;;;;;;;;;2067331;28;20038;-78
2023/10/24 02:19:30;;;;;;;13.82;7.72;;;;;;;;;;2065760;28;20399;-77
2023/10/24 02:20:51;;;;;;;9.15;7.53;;;;;;;;;;2069477;28;20040;-78
2023/10/24 02:22:11;;;;;;;8.60;6.95;;;;;;;;;;2068132;28;20378;-78
2023/10/24 02:23:32;;;;;;;9.98;7.00;;;;;;;;;;2064606;28;20034;-78
2023/10/24 02:24:53;;;;;;;11.32;8.07;;;;;;;;;;2063593;28;20027;-77
2023/10/24 02:26:17;;;;;;;10.30;8.02;;;;;;;;;;2066538;28;20033;-77
2023/10/24 02:27:38;;;;;;;10.52;7.57;;;;;;;;;;2067907;28;20034;-77
2023/10/24 02:28:59;;;;;;;10.93;8.55;;;;;;;;;;2070551;28;20076;-78
2023/10/24 02:30:21;;;;;;;9.00;7.25;;;;;;;;;;2079597;28;20056;-78
2023/10/24 02:31:42;;;;;;;8.70;7.40;;;;;;;;;;2058109;28;20489;-77
2023/10/24 02:33:03;;;;;;;9.95;7.10;;;;;;;;;;2066179;28;20026;-78
2023/10/24 02:34:24;;;;;;;9.68;8.00;;;;;;;;;;2069731;28;20092;-78
2023/10/24 02:35:45;;;;;;;8.82;7.85;;;;;;;;;;2069063;28;20501;-77
2023/10/24 02:37:06;;;;;;;10.00;8.02;;;;;;;;;;2062031;28;20034;-77
2023/10/24 02:38:27;;;;;;;8.52;6.82;;;;;;;;;;2067766;28;20029;-78
2023/10/24 02:39:48;;;;;;;8.80;6.63;;;;;;;;;;2057085;28;20027;-77
2023/10/24 02:41:08;;;;;;;9.93;7.03;;;;;;;;;;2070142;28;20025;-77
2023/10/24 02:42:29;;;;;;;10.02;7.78;;;;;;;;;;2073624;28;20022;-77
2023/10/24 02:43:50;;;;;;;11.20;7.43;;;;;;;;;;2073395;28;20034;-77
2023/10/24 02:45:11;;;;;;;9.02;6.85;;;;;;;;;;2065304;28;20105;-77
2023/10/24 02:46:32;;;;;;;8.93;6.93;;;;;;;;;;2065689;28;20026;-77
2023/10/24 02:47:53;;;;;;;10.30;7.88;;;;;;;;;;2064795;28;20085;-78
2023/10/24 02:49:14;;;;;;;12.10;7.15;;;;;;;;;;2061563;28;20465;-77
2023/10/24 02:50:35;;;;;;;8.07;6.15;;;;;;;;;;2064517;28;20046;-77
2023/10/24 02:51:56;;;;;;;9.25;7.13;;;;;;;;;;2065065;28;20027;-78
2023/10/24 02:53:17;;;;;;;10.50;7.78;;;;;;;;;;2064240;28;20449;-77
2023/10/24 02:54:38;;;;;;;19.92;17.85;;;;;;;;;;2063460;28;20034;-78
2023/10/24 02:56:05;;;;;;;11.68;7.43;;;;;;;;;;2069373;28;20030;-77
2023/10/24 02:57:26;;;;;;;8.68;6.70;;;;;;;;;;2073131;28;20030;-77
2023/10/24 02:58:48;;;;;;;8.05;6.70;;;;;;;;;;2060079;28;20030;-77
2023/10/24 03:00:09;;;;;;;8.38;7.50;;;;;;;;;;2069207;28;20026;-77
2023/10/24 03:01:30;;;;;;;8.70;6.70;;;;;;;;;;2063636;28;20113;-77
2023/10/24 03:02:51;;;;;;;10.13;7.15;;;;;;;;;;2071616;28;20026;-77
2023/10/24 03:04:12;;;;;;;10.25;7.95;;;;;;;;;;2072469;28;20033;-77
2023/10/24 03:05:33;;;;;;;8.77;7.22;;;;;;;;;;2072577;28;20762;-77
2023/10/24 03:06:54;;;;;;;10.68;7.78;;;;;;;;;;2072806;28;20034;-77
2023/10/24 03:08:15;;;;;;;7.75;6.20;;;;;;;;;;2070054;28;20094;-77
2023/10/24 03:09:36;;;;;;;8.98;7.35;;;;;;;;;;2068770;28;20101;-77
2023/10/24 03:10:57;;;;;;;9.65;6.68;;;;;;;;;;2063343;28;20031;-77
2023/10/24 03:12:18;;;;;;;9.02;7.30;;;;;;;;;;2066206;28;20026;-77
2023/10/24 03:13:39;;;;;;;9.18;6.95;;;;;;;;;;2066992;28;20449;-77
2023/10/24 03:15:00;;;;;;;9.50;6.82;;;;;;;;;;2056362;28;20109;-77
2023/10/24 03:16:21;;;;;;;9.30;7.40;;;;;;;;;;2064806;28;20093;-78
2023/10/24 03:17:42;;;;;;;10.93;7.53;;;;;;;;;;2068953;28;20374;-77
2023/10/24 03:19:02;;;;;;;8.93;6.85;;;;;;;;;;2062320;28;20045;-77
2023/10/24 03:20:25;;;;;;;10.65;7.93;;;;;;;;;;2068988;28;20148;-77
2023/10/24 03:21:46;;;;;;;9.90;8.27;;;;;;;;;;2057335;28;20042;-77
2023/10/24 03:23:08;;;;;;;10.20;7.55;;;;;;;;;;2076926;28;20037;-78
2023/10/24 03:24:29;;;;;;;11.02;6.90;;;;;;;;;;2065314;28;20077;-77
2023/10/24 03:25:50;;;;;;;11.45;8.70;;;;;;;;;;2064386;28;20105;-77
2023/10/24 03:27:13;;;;;;;12.52;8.82;;;;;;;;;;2067507;28;20034;-77
2023/10/24 03:28:34;;;;;;;10.13;7.68;;;;;;;;;;2060279;28;20027;-78
2023/10/24 03:29:55;;;;;;;10.18;8.85;;;;;;;;;;2061963;28;20386;-77
2023/10/24 03:31:16;;;;;;;10.05;7.00;;;;;;;;;;2069941;28;20129;-78
2023/10/24 03:32:36;;;;;;;10.02;8.05;;;;;;;;;;2076124;28;20048;-78
2023/10/24 03:33:57;;;;;;;10.50;7.82;;;;;;;;;;2076672;28;20083;-77
2023/10/24 03:35:18;;;;;;;9.85;7.47;;;;;;;;;;2072358;28;20034;-78
2023/10/24 03:36:39;;;;;;;11.52;8.10;;;;;;;;;;2077948;28;20143;-78
2023/10/24 03:38:01;;;;;;;11.88;8.13;;;;;;;;;;2072215;28;20405;-78
2023/10/24 03:39:22;;;;;;;9.82;7.63;;;;;;;;;;2070460;28;20064;-77
2023/10/24 03:40:43;;;;;;;11.00;8.68;;;;;;;;;;2060828;28;20104;-76
2023/10/24 03:42:03;;;;;;;10.02;7.45;;;;;;;;;;2061999;28;20046;-77
2023/10/24 03:43:24;;;;;;;11.70;8.93;;;;;;;;;;2069439;28;20077;-77
2023/10/24 03:44:45;;;;;;;11.32;7.80;;;;;;;;;;2063950;28;20556;-78
2023/10/24 03:46:06;;;;;;;10.07;7.78;;;;;;;;;;2069400;28;20098;-78
2023/10/24 03:47:27;;;;;;;10.75;7.53;;;;;;;;;;2066735;28;20033;-77
2023/10/24 03:48:48;;;;;;;12.10;8.38;;;;;;;;;;2068677;28;20493;-78
2023/10/24 03:50:09;;;;;;;10.40;6.97;;;;;;;;;;2073729;28;20449;-77
2023/10/24 03:51:30;;;;;;;10.98;8.30;;;;;;;;;;2072069;28;20034;-78
2023/10/24 03:52:51;;;;;;;12.30;7.72;;;;;;;;;;2073607;28;20037;-76
2023/10/24 03:54:12;;;;;;;10.48;7.60;;;;;;;;;;2072886;28;20055;-77
2023/10/24 03:55:34;;;;;;;9.85;7.40;;;;;;;;;;2072548;28;20026;-77
2023/10/24 03:56:55;;;;;;;9.52;7.80;;;;;;;;;;2072353;28;20026;-77
2023/10/24 03:58:16;;;;;;;12.82;7.97;;;;;;;;;;2063037;28;20501;-77
2023/10/24 03:59:36;;;;;;;9.77;7.78;;;;;;;;;;2073378;28;20037;-76
2023/10/24 04:01:01;;;;;;;9.85;7.65;;;;;;;;;;2070854;28;20033;-77
2023/10/24 04:02:22;;;;;;;10.60;7.85;;;;;;;;;;2073827;28;20037;-77
2023/10/24 04:03:43;;;;;;;10.55;8.00;;;;;;;;;;2064966;28;20267;-77
2023/10/24 04:05:06;;;;;;;10.05;8.23;;;;;;;;;;2065494;28;20041;-76
2023/10/24 04:06:27;;;;;;;11.50;7.43;;;;;;;;;;2064942;28;20030;-76
2023/10/24 04:07:48;;;;;;;9.70;7.32;;;;;;;;;;2069053;28;20033;-76
2023/10/24 04:09:09;;;;;;;10.80;7.15;;;;;;;;;;2063313;28;20041;-76
2023/10/24 04:10:32;;;;;;;11.00;8.30;;;;;;;;;;2060191;28;20056;-76
2023/10/24 04:11:53;;;;;;;21.15;17.92;;;;;;;;;;2065661;28;20426;-77
2023/10/24 04:13:15;;;;;;;12.65;8.07;;;;;;;;;;2068908;28;20038;-77
2023/10/24 04:14:36;;;;;;;12.07;8.52;;;;;;;;;;2064975;28;20038;-75
2023/10/24 04:15:59;;;;;;;13.85;10.07;;;;;;;;;;2063050;28;20412;-76
2023/10/24 04:17:20;;;;;;;9.18;7.07;;;;;;;;;;2069371;28;20042;-77
2023/10/24 04:18:41;;;;;;;10.60;7.55;;;;;;;;;;2059791;28;20038;-76
2023/10/24 04:20:02;;;;;;;13.52;8.88;;;;;;;;;;2067345;28;20037;-76
2023/10/24 04:21:23;;;;;;;11.85;7.68;;;;;;;;;;2057922;28;20031;-77
2023/10/24 04:22:46;;;;;;;10.35;7.78;;;;;;;;;;2059188;28;20490;-76
2023/10/24 04:24:07;;;;;;;11.93;7.55;;;;;;;;;;2063059;28;20105;-75
2023/10/24 04:25:28;;;;;;;11.10;7.78;;;;;;;;;;2068344;28;20073;-76
2023/10/24 04:26:49;;;;;;;11.23;8.18;;;;;;;;;;2071841;28;20033;-75
2023/10/24 04:28:11;;;;;;;13.48;8.25;;;;;;;;;;2064618;28;20030;-76
2023/10/24 04:29:32;;;;;;;11.50;8.68;;;;;;;;;;2070359;28;20029;-77
2023/10/24 04:30:54;;;;;;;12.18;7.80;;;;;;;;;;2072484;28;20137;-76
2023/10/24 04:32:15;;;;;;;11.90;8.70;;;;;;;;;;2057338;28;20027;-76
2023/10/24 04:33:35;;;;;;;8.77;7.57;;;;;;;;;;2067849;28;20041;-76
2023/10/24 04:34:58;;;;;;;10.48;8.15;;;;;;;;;;2070422;28;20520;-76
2023/10/24 04:36:19;;;;;;;12.70;7.88;;;;;;;;;;2063989;28;20042;-76
2023/10/24 04:37:40;;;;;;;11.77;7.45;;;;;;;;;;2062135;28;20031;-76
2023/10/24 04:39:01;;;;;;;10.48;8.15;;;;;;;;;;2070421;28;20036;-77
2023/10/24 04:40:22;;;;;;;13.80;9.30;;;;;;;;;;2059710;28;20085;-77
2023/10/24 04:41:46;;;;;;;12.15;8.13;;;;;;;;;;2063430;28;20417;-76
2023/10/24 04:43:07;;;;;;;12.30;7.75;;;;;;;;;;2069487;28;20046;-75
2023/10/24 04:44:28;;;;;;;10.80;8.00;;;;;;;;;;2063933;28;20030;-76
2023/10/24 04:45:50;;;;;;;10.32;8.38;;;;;;;;;;2061622;28;20049;-77
2023/10/24 04:47:11;;;;;;;;;;;;;;;;;;2062944;28;20022;-81
2023/10/24 04:48:32;;;;;;;12.57;8.40;;;;;;;;;;2064879;28;19929;-78
2023/10/24 04:49:53;;;;;;;9.73;8.30;;;;;;;;;;2067392;28;20425;-76
2023/10/24 04:51:14;;;;;;;10.95;8.38;;;;;;;;;;2074496;28;20053;-75
2023/10/24 04:52:35;;;;;;;10.75;9.10;;;;;;;;;;2078429;28;20129;-75
2023/10/24 04:53:55;;;;;;;11.88;8.63;;;;;;;;;;2080411;28;20566;-76
2023/10/24 04:55:17;;;;;;;12.68;7.95;;;;;;;;;;2072168;28;20417;-75
2023/10/24 04:56:37;;;;;;;12.02;8.15;;;;;;;;;;2069714;28;20037;-77
2023/10/24 04:57:59;;;;;;;11.50;8.52;;;;;;;;;;2064639;28;20485;-76
2023/10/24 04:59:20;;;;;;;11.87;8.80;;;;;;;;;;2077223;28;20117;-76
2023/10/24 05:00:40;;;;;;;10.32;8.05;;;;;;;;;;2070602;28;20431;-77
2023/10/24 05:02:01;;;;;;;10.95;8.15;;;;;;;;;;2060778;28;20026;-77
2023/10/24 05:03:22;;;;;;;13.38;8.23;;;;;;;;;;2068269;28;20034;-77
2023/10/24 05:04:43;;;;;;;12.23;8.32;;;;;;;;;;2064297;28;20034;-75
2023/10/24 05:06:05;;;;;;;12.40;9.02;;;;;;;;;;2065416;28;20030;-76
2023/10/24 05:07:25;;;;;;;11.95;9.00;;;;;;;;;;2072955;28;20026;-77
2023/10/24 05:08:46;;;;;;;11.65;8.20;;;;;;;;;;2062229;28;20043;-77
2023/10/24 05:10:07;;;;;;;12.02;8.82;;;;;;;;;;2060903;28;20023;-76
2023/10/24 05:11:28;;;;;;;12.13;8.20;;;;;;;;;;2068299;28;20022;-78
2023/10/24 05:12:49;;;;;;;10.80;8.93;;;;;;;;;;2069129;28;20036;-75
2023/10/24 05:14:10;;;;;;;11.50;8.25;;;;;;;;;;2073039;28;20354;-76
2023/10/24 05:15:32;;;;;;;11.18;7.97;;;;;;;;;;2065129;28;20399;-76
2023/10/24 05:16:52;;;;;;;11.02;8.27;;;;;;;;;;2065054;28;20030;-75
2023/10/24 05:18:13;;;;;;;10.63;8.05;;;;;;;;;;2078653;28;20405;-75
2023/10/24 05:19:34;;;;;;;9.90;8.35;;;;;;;;;;2078800;28;20535;-76
2023/10/24 05:20:55;;;;;;;10.55;8.43;;;;;;;;;;2063553;28;20050;-76
2023/10/24 05:22:16;;;;;;;12.20;8.68;;;;;;;;;;2069865;28;20030;-76
2023/10/24 05:23:37;;;;;;;10.80;7.90;;;;;;;;;;2066216;28;20053;-76
2023/10/24 05:24:58;;;;;;;11.18;9.30;;;;;;;;;;2069296;28;20038;-76
2023/10/24 05:26:19;;;;;;;11.95;8.80;;;;;;;;;;2061511;28;20050;-76
2023/10/24 05:27:40;;;;;;;10.68;9.40;;;;;;;;;;2068525;28;20030;-75
2023/10/24 05:29:01;;;;;;;12.15;9.07;;;;;;;;;;2064770;28;20038;-76
2023/10/24 05:30:22;;;;;;;10.98;8.77;;;;;;;;;;2071933;28;20034;-76
2023/10/24 05:31:42;;;;;;;9.50;8.57;;;;;;;;;;2056529;28;20523;-76
2023/10/24 05:33:04;;;;;;;12.75;8.70;;;;;;;;;;2070209;28;20052;-76
2023/10/24 05:34:28;;;;;;;13.40;8.98;;;;;;;;;;2065382;28;20038;-77
2023/10/24 05:35:49;;;;;;;11.23;8.52;;;;;;;;;;2061997;28;20114;-77
2023/10/24 05:37:10;;;;;;;11.98;8.63;;;;;;;;;;2057773;28;20428;-76
2023/10/24 05:38:34;;;;;;;9.25;7.75;;;;;;;;;;2069948;28;20045;-76
2023/10/24 05:39:55;;;;;;;10.27;8.52;;;;;;;;;;2066193;28;20506;-76
2023/10/24 05:41:16;;;;;;;11.82;9.10;;;;;;;;;;2066883;28;20052;-76
2023/10/24 05:42:37;;;;;;;11.32;8.45;;;;;;;;;;2079294;28;20033;-76
2023/10/24 05:43:58;;;;;;;10.88;8.40;;;;;;;;;;2067014;28;20478;-76
2023/10/24 05:45:21;;;;;;;11.95;8.60;;;;;;;;;;2063507;28;20085;-78
2023/10/24 05:46:42;;;;;;;11.85;9.00;;;;;;;;;;2058646;28;20023;-77
2023/10/24 05:48:03;;;;;;;10.48;8.43;;;;;;;;;;2062984;28;20018;-77
2023/10/24 05:49:24;;;;;;;9.60;8.38;;;;;;;;;;2071491;28;20366;-76
2023/10/24 05:50:45;;;;;;;11.63;7.88;;;;;;;;;;2065974;28;20405;-76
2023/10/24 05:52:06;;;;;;;10.80;8.23;;;;;;;;;;2063660;28;20034;-77
2023/10/24 05:53:27;;;;;;;10.98;8.23;;;;;;;;;;2074288;28;20034;-75
2023/10/24 05:54:48;;;;;;;9.93;7.85;;;;;;;;;;2074195;28;20065;-75
2023/10/24 05:56:09;;;;;;;12.80;8.80;;;;;;;;;;2062651;28;20034;-76
2023/10/24 05:57:30;;;;;;;8.23;7.35;;;;;;;;;;2055444;28;20030;-75
2023/10/24 05:58:51;;;;;;;11.55;8.75;;;;;;;;;;2059292;28;20399;-75
2023/10/24 06:00:12;;;;;;;11.57;7.93;;;;;;;;;;2069242;28;20034;-76
2023/10/24 06:01:32;;;;;;;10.30;7.95;;;;;;;;;;2073468;28;20512;-75
2023/10/24 06:02:53;;;;;;;9.98;7.97;;;;;;;;;;2074715;28;20034;-75
2023/10/24 06:04:14;;;;;;;9.50;8.27;;;;;;;;;;2077701;28;20033;-76
2023/10/24 06:05:36;;;;;;;8.43;7.40;;;;;;;;;;2072860;28;20100;-75
2023/10/24 06:06:57;;;;;;;11.07;7.57;;;;;;;;;;2057822;28;20031;-75
2023/10/24 06:08:18;;;;;;;10.60;7.95;;;;;;;;;;2070308;28;20030;-75
2023/10/24 06:09:39;;;;;;;7.90;7.03;;;;;;;;;;2067677;28;20030;-75
2023/10/24 06:11:01;;;;;;;9.48;7.47;;;;;;;;;;2057974;28;20042;-75
2023/10/24 06:12:23;;;;;;;9.32;6.80;;;;;;;;;;2071548;28;20022;-75
2023/10/24 06:13:44;;;;;;;8.93;7.47;;;;;;;;;;2080269;28;20030;-75
2023/10/24 06:15:05;;;;;;;9.32;7.28;;;;;;;;;;2076831;28;20386;-74
2023/10/24 06:16:27;;;;;;;8.88;7.30;;;;;;;;;;2061252;28;20042;-76
2023/10/24 06:17:48;;;;;;;9.57;7.07;;;;;;;;;;2071128;28;20049;-76
2023/10/24 06:19:09;;;;;;;8.45;7.22;;;;;;;;;;2073250;28;20061;-76
2023/10/24 06:20:30;;;;;;;8.07;7.28;;;;;;;;;;2072584;28;20096;-77
2023/10/24 06:21:51;;;;;;;7.43;6.70;;;;;;;;;;2057383;28;20097;-76
2023/10/24 06:23:12;;;;;;;9.05;7.07;;;;;;;;;;2071738;28;20041;-77
2023/10/24 06:24:33;;;;;;;8.40;6.77;;;;;;;;;;2072594;28;20049;-76
2023/10/24 06:25:56;;;;;;;8.63;7.50;;;;;;;;;;2070259;28;20427;-77
2023/10/24 06:27:17;;;;;;;8.77;6.03;;;;;;;;;;2065670;28;20153;-76
2023/10/24 06:28:38;;;;;;;9.35;7.05;;;;;;;;;;2071560;28;20030;-77
2023/10/24 06:29:59;;;;;;;8.50;6.68;;;;;;;;;;2059566;28;20035;-77
2023/10/24 06:31:20;;;;;;;7.93;7.13;;;;;;;;;;2065332;28;20405;-77
2023/10/24 06:32:41;;;;;;;14.35;8.05;;;;;;;;;;2065357;28;20470;-78
2023/10/24 06:34:03;;;;;;;8.25;7.32;;;;;;;;;;2062425;28;20101;-77
2023/10/24 06:35:24;;;;;;;10.80;7.03;;;;;;;;;;2068599;28;20034;-77
2023/10/24 06:36:45;;;;;;;7.75;6.38;;;;;;;;;;2063675;28;20030;-76
2023/10/24 06:38:06;;;;;;;10.73;7.47;;;;;;;;;;2068756;28;20080;-77
2023/10/24 06:39:27;;;;;;;6.70;6.00;;;;;;;;;;2057919;28;20514;-77
2023/10/24 06:40:48;;;;;;;8.27;6.45;;;;;;;;;;2067406;28;20408;-76
2023/10/24 06:42:09;;;;;;;8.57;7.68;;;;;;;;;;2065450;28;20033;-76
2023/10/24 06:43:30;;;;;;;11.50;7.75;;;;;;;;;;2075077;28;20429;-77
2023/10/24 06:44:50;;;;;;;7.47;6.68;;;;;;;;;;2073466;28;20026;-77
2023/10/24 06:46:11;;;;;;;11.50;9.20;;;;;;;;;;2074190;28;20033;-78
2023/10/24 06:47:32;;;;;;;9.18;8.32;;;;;;;;;;2064458;28;20033;-77
2023/10/24 06:48:53;;;;;;;8.95;7.07;;;;;;;;;;2078123;28;20104;-77
2023/10/24 06:50:14;;;;;;;8.27;6.57;;;;;;;;;;2067181;28;20023;-77
2023/10/24 06:51:35;;;;;;;9.30;8.50;;;;;;;;;;2069272;28;20401;-77
2023/10/24 06:52:56;;;;;;;12.10;8.55;;;;;;;;;;2063292;28;20030;-77
2023/10/24 06:54:17;;;;;;;8.90;8.00;;;;;;;;;;2070313;28;20030;-77
2023/10/24 06:55:38;;;;;;;9.60;8.57;;;;;;;;;;2072204;28;20488;-75
2023/10/24 06:56:59;;;;;;;9.57;7.88;;;;;;;;;;2057324;28;20483;-76
2023/10/24 06:58:20;;;;;;;10.18;8.68;;;;;;;;;;2061999;28;20033;-74
2023/10/24 06:59:41;;;;;;;8.45;7.45;;;;;;;;;;2070538;28;20438;-76
2023/10/24 07:01:02;;;;;;;8.98;7.05;;;;;;;;;;2068679;28;20302;-77
2023/10/24 07:02:23;;;;;;;7.95;6.43;;;;;;;;;;2070340;28;20037;-76
2023/10/24 07:03:44;;;;;;;8.55;6.78;;;;;;;;;;2069918;28;20037;-76
2023/10/24 07:05:05;;;;;;;7.90;6.68;;;;;;;;;;2053914;28;20027;-76
2023/10/24 07:06:26;;;;;;;9.10;7.55;;;;;;;;;;2059639;28;20045;-76
2023/10/24 07:07:47;;;;;;;8.88;7.45;;;;;;;;;;2062445;28;20034;-76
2023/10/24 07:09:07;;;;;;;10.10;7.28;;;;;;;;;;2071235;28;20037;-76
2023/10/24 07:10:29;;;;;;;8.35;7.40;;;;;;;;;;2063691;28;20553;-77
2023/10/24 07:11:49;;;;;;;9.32;7.43;;;;;;;;;;2065066;28;20089;-76
2023/10/24 07:13:11;;;;;;;8.90;7.25;;;;;;;;;;2072224;28;20049;-76
2023/10/24 07:14:32;;;;;;;7.30;6.28;;;;;;;;;;2073387;28;20034;-76
2023/10/24 07:15:53;;;;;;;9.23;7.05;;;;;;;;;;2072319;28;20037;-76
2023/10/24 07:17:14;;;;;;;9.90;7.60;;;;;;;;;;2075060;28;20118;-76
2023/10/24 07:18:35;;;;;;;10.55;7.63;;;;;;;;;;2079161;28;20044;-76
2023/10/24 07:19:56;;;;;;;9.10;7.70;;;;;;;;;;2073351;28;20041;-76
2023/10/24 07:21:17;;;;;;;8.80;7.37;;;;;;;;;;2071289;28;20782;-76
2023/10/24 07:22:38;;;;;;;9.65;8.02;;;;;;;;;;2064942;28;20426;-76
2023/10/24 07:23:59;;;;;;;10.07;7.93;;;;;;;;;;2062376;28;20354;-76
2023/10/24 07:25:20;;;;;;;9.18;7.18;;;;;;;;;;2062615;28;20026;-76
2023/10/24 07:26:40;;;;;;;8.02;6.70;;;;;;;;;;2074363;28;20029;-77
2023/10/24 07:28:03;;;;;;;10.18;7.68;;;;;;;;;;2065512;28;20525;-76
2023/10/24 07:29:26;;;;;;;8.77;7.78;;;;;;;;;;2065260;28;20030;-77
2023/10/24 07:30:51;;;;;;;11.75;7.75;;;;;;;;;;2065140;28;20045;-77
2023/10/24 07:32:12;;;;;;;10.77;7.28;;;;;;;;;;2070112;28;20137;-76
2023/10/24 07:33:33;;;;;;;11.38;8.30;;;;;;;;;;2070698;28;20405;-77
2023/10/24 07:34:56;;;;;;;14.25;8.85;;;;;;;;;;2065432;28;20039;-76
2023/10/24 07:36:17;;;;;;;9.43;7.50;;;;;;;;;;2063784;28;20492;-76
2023/10/24 07:37:38;;;;;;;8.65;7.72;;;;;;;;;;2069968;28;20121;-76
2023/10/24 07:39:00;;;;;;;12.00;8.50;;;;;;;;;;2068662;28;20022;-75
2023/10/24 07:40:21;;;;;;;;;;;;;;;;;;2070754;28;20026;-76
2023/10/24 07:41:41;;;;;;;10.02;7.60;;;;;;;;;;2062512;28;19992;-76
2023/10/24 07:43:03;;;;;;;11.18;8.40;;;;;;;;;;2068416;28;20400;-76
2023/10/24 07:44:24;;;;;;;10.10;8.02;;;;;;;;;;2065066;28;20026;-76
2023/10/24 07:45:49;;;;;;;12.20;7.85;;;;;;;;;;2069322;28;20551;-76
2023/10/24 07:47:10;;;;;;;12.10;7.90;;;;;;;;;;2072715;28;20088;-77
2023/10/24 07:48:31;;;;;;;9.43;7.43;;;;;;;;;;2071139;28;20053;-77
2023/10/24 07:49:53;;;;;;;11.88;8.30;;;;;;;;;;2077857;28;20480;-77
2023/10/24 07:51:13;;;;;;;11.25;7.97;;;;;;;;;;2070891;28;20038;-76
2023/10/24 07:52:34;;;;;;;10.10;7.82;;;;;;;;;;2067851;28;20030;-76
2023/10/24 07:53:55;;;;;;;10.02;7.93;;;;;;;;;;2064262;28;20537;-77
2023/10/24 07:55:16;;;;;;;12.02;8.07;;;;;;;;;;2065104;28;20108;-77
2023/10/24 07:56:38;;;;;;;12.85;8.32;;;;;;;;;;2070585;28;20037;-77
2023/10/24 07:57:58;;;;;;;12.32;8.13;;;;;;;;;;2072345;28;20030;-77
2023/10/24 07:59:19;;;;;;;9.98;7.25;;;;;;;;;;2072193;28;20038;-77
2023/10/24 08:00:40;;;;;;;14.15;9.13;;;;;;;;;;2077575;28;20377;-76